Time;durP1;ratioP1;P1;durP2;ratioP2;P2;SDS_P1;SDS_P2;PMS_P1;PMS_P2;Temp;Humidity;BMP_temperature;BMP_pressure;BME280_temperature;BME280_humidity;BME280_pressure;Samples;Min_cycle;Max_cycle;Signal;HPM_P1;HPM_P2
2023/12/11 00:00:11;;;;;;;78.50;57.58;;;4.00;99.90;;;;;;4962728;28;20485;-77
2023/12/11 00:02:37;;;;;;;158.85;64.20;;;4.10;99.90;;;;;;4968661;28;20044;-78
2023/12/11 00:05:03;;;;;;;110.90;57.45;;;4.10;99.90;;;;;;4966158;28;20058;-77
2023/12/11 00:07:29;;;;;;;143.38;62.15;;;4.00;99.90;;;;;;4967621;28;20027;-77
2023/12/11 00:09:54;;;;;;;223.45;74.10;;;4.00;99.90;;;;;;4966462;28;20129;-77
2023/12/11 00:12:20;;;;;;;139.80;63.03;;;4.00;99.90;;;;;;4964517;28;20508;-78
2023/12/11 00:14:45;;;;;;;214.95;77.57;;;4.00;99.90;;;;;;4966062;28;20385;-77
2023/12/11 00:17:11;;;;;;;237.40;81.05;;;3.90;99.90;;;;;;4949883;28;20035;-77
2023/12/11 00:19:37;;;;;;;217.93;74.60;;;4.00;99.90;;;;;;4965550;28;20035;-78
2023/12/11 00:22:03;;;;;;;154.98;61.55;;;4.00;99.90;;;;;;4961807;28;20031;-77
2023/12/11 00:24:28;;;;;;;151.35;68.63;;;4.00;99.90;;;;;;4964518;28;20027;-78
2023/12/11 00:26:54;;;;;;;215.55;72.60;;;4.00;99.90;;;;;;4965063;28;20023;-77
2023/12/11 00:29:20;;;;;;;99.25;58.83;;;4.00;99.90;;;;;;4963552;28;20026;-77
2023/12/11 00:31:45;;;;;;;272.27;84.07;;;4.00;99.90;;;;;;4966754;28;20397;-76
2023/12/11 00:34:11;;;;;;;164.07;65.78;;;4.00;99.90;;;;;;4964690;28;20408;-77
2023/12/11 00:36:37;;;;;;;156.45;60.58;;;4.00;99.90;;;;;;4968662;28;20058;-77
2023/12/11 00:39:03;;;;;;;116.20;61.53;;;3.90;99.90;;;;;;4967271;28;20019;-76
2023/12/11 00:41:29;;;;;;;109.35;57.72;;;3.90;99.90;;;;;;4964901;28;20022;-77
2023/12/11 00:43:55;;;;;;;111.80;52.05;;;3.90;99.90;;;;;;4962523;28;20102;-77
2023/12/11 00:46:22;;;;;;;83.07;53.35;;;3.80;99.90;;;;;;4963095;28;20086;-77
2023/12/11 00:48:49;;;;;;;55.05;49.30;;;3.90;99.90;;;;;;4963480;28;20078;-77
2023/12/11 00:51:18;;;;;;;55.30;49.38;;;3.90;99.90;;;;;;4965181;28;20038;-77
2023/12/11 00:53:45;;;;;;;50.88;45.50;;;3.90;99.90;;;;;;4964967;28;20460;-78
2023/12/11 00:56:11;;;;;;;49.42;44.22;;;4.00;99.90;;;;;;4964573;28;20497;-78
2023/12/11 00:58:37;;;;;;;46.72;41.63;;;4.00;99.90;;;;;;4967010;28;20027;-77
2023/12/11 01:01:04;;;;;;;46.70;41.78;;;4.00;99.90;;;;;;4961366;28;20078;-77
2023/12/11 01:03:29;;;;;;;46.83;41.78;;;4.00;99.90;;;;;;4946862;28;20031;-76
2023/12/11 01:05:55;;;;;;;48.42;42.20;;;4.00;99.90;;;;;;4963793;28;20090;-77
2023/12/11 01:08:21;;;;;;;44.10;39.55;;;3.90;99.90;;;;;;4954288;28;20023;-77
2023/12/11 01:10:47;;;;;;;41.42;37.00;;;3.90;99.90;;;;;;4965907;28;20081;-78
2023/12/11 01:13:12;;;;;;;38.97;34.90;;;3.90;99.90;;;;;;4964678;28;20486;-77
2023/12/11 01:15:38;;;;;;;35.58;31.15;;;3.90;99.90;;;;;;4964293;28;20023;-77
2023/12/11 01:18:04;;;;;;;34.70;30.63;;;4.00;99.90;;;;;;4967664;28;20047;-77
2023/12/11 01:20:29;;;;;;;34.38;30.63;;;4.00;99.90;;;;;;4964584;28;20031;-77
2023/12/11 01:22:55;;;;;;;30.48;27.38;;;4.10;99.90;;;;;;4961871;28;20027;-77
2023/12/11 01:25:21;;;;;;;25.63;22.60;;;4.20;99.90;;;;;;4967390;28;20031;-77
2023/12/11 01:27:46;;;;;;;25.42;22.33;;;4.20;99.90;;;;;;4947307;28;20433;-77
2023/12/11 01:30:12;;;;;;;26.48;23.77;;;4.30;99.90;;;;;;4963540;28;20034;-77
2023/12/11 01:32:38;;;;;;;25.73;23.17;;;4.30;99.90;;;;;;4965307;28;20051;-77
2023/12/11 01:35:04;;;;;;;24.45;21.58;;;4.30;99.90;;;;;;4960630;28;20083;-77
2023/12/11 01:37:29;;;;;;;23.10;20.88;;;4.40;99.90;;;;;;4961188;28;20378;-77
2023/12/11 01:39:55;;;;;;;20.35;18.23;;;4.40;99.90;;;;;;4967730;28;20114;-77
2023/12/11 01:42:21;;;;;;;21.35;19.25;;;4.40;99.90;;;;;;4965534;28;20490;-77
2023/12/11 01:44:46;;;;;;;22.63;20.20;;;4.30;99.90;;;;;;4945408;28;20058;-77
2023/12/11 01:47:12;;;;;;;21.65;19.60;;;4.40;99.90;;;;;;4960796;28;20516;-78
2023/12/11 01:49:38;;;;;;;20.55;18.60;;;4.40;99.90;;;;;;4962313;28;20019;-77
2023/12/11 01:52:07;;;;;;;22.95;19.70;;;4.40;99.90;;;;;;4970168;28;20430;-77
2023/12/11 01:54:34;;;;;;;28.65;25.92;;;4.40;99.90;;;;;;4968587;28;20024;-77
2023/12/11 01:57:00;;;;;;;31.00;27.90;;;4.30;99.90;;;;;;4964508;28;20421;-77
2023/12/11 01:59:27;;;;;;;35.60;31.95;;;4.30;99.90;;;;;;4967508;28;20109;-77
2023/12/11 02:01:54;;;;;;;35.25;31.60;;;4.30;99.90;;;;;;4967611;28;20031;-78
2023/12/11 02:04:20;;;;;;;38.08;34.03;;;4.30;99.90;;;;;;4967704;28;20031;-77
2023/12/11 02:06:46;;;;;;;37.15;33.40;;;4.20;99.90;;;;;;4968086;28;20366;-77
2023/12/11 02:09:12;;;;;;;37.35;33.53;;;4.20;99.90;;;;;;4968969;28;20023;-77
2023/12/11 02:11:38;;;;;;;32.80;29.55;;;4.10;99.90;;;;;;4967652;28;20155;-77
2023/12/11 02:14:04;;;;;;;30.52;27.30;;;4.00;99.90;;;;;;4967617;28;20023;-77
2023/12/11 02:16:29;;;;;;;30.02;26.98;;;3.90;99.90;;;;;;4969476;28;20049;-77
2023/12/11 02:18:55;;;;;;;29.83;25.38;;;4.00;99.90;;;;;;4967450;28;20389;-77
2023/12/11 02:21:21;;;;;;;28.63;23.42;;;4.00;99.90;;;;;;4967234;28;20475;-77
2023/12/11 02:24:07;;;;;;;26.08;23.33;;;4.10;99.90;;;;;;4948042;28;20507;-77
2023/12/11 02:26:33;;;;;;;27.63;24.63;;;4.20;99.90;;;;;;4966433;28;20104;-77
2023/12/11 02:28:59;;;;;;;27.10;24.08;;;4.10;99.90;;;;;;4963721;28;20561;-78
2023/12/11 02:31:24;;;;;;;26.55;22.10;;;4.10;99.90;;;;;;4949618;28;20385;-77
2023/12/11 02:33:50;;;;;;;24.98;22.38;;;4.20;99.90;;;;;;4968548;28;20043;-77
2023/12/11 02:36:16;;;;;;;27.65;24.70;;;4.20;99.90;;;;;;4948323;28;20117;-77
2023/12/11 02:38:41;;;;;;;31.77;26.45;;;4.20;99.90;;;;;;4970310;28;20482;-77
2023/12/11 02:41:07;;;;;;;26.92;22.48;;;4.20;99.90;;;;;;4971098;28;20078;-77
2023/12/11 02:43:34;;;;;;;24.58;22.05;;;4.20;99.90;;;;;;4966894;28;20023;-77
2023/12/11 02:45:59;;;;;;;31.33;24.42;;;4.30;99.90;;;;;;4965245;28;20082;-77
2023/12/11 02:48:25;;;;;;;28.75;25.67;;;4.40;99.90;;;;;;4967805;28;20027;-77
2023/12/11 02:50:51;;;;;;;25.02;22.45;;;4.40;99.90;;;;;;4947409;28;20027;-77
2023/12/11 02:53:16;;;;;;;26.13;23.25;;;4.40;99.90;;;;;;4956556;28;20051;-77
2023/12/11 02:55:42;;;;;;;24.25;21.73;;;4.50;99.90;;;;;;4947979;28;20031;-77
2023/12/11 02:58:08;;;;;;;25.63;22.38;;;4.50;99.90;;;;;;4970231;28;20086;-77
2023/12/11 03:00:35;;;;;;;25.75;23.15;;;4.50;99.90;;;;;;4966289;28;20035;-77
2023/12/11 03:03:01;;;;;;;26.15;23.33;;;4.50;99.90;;;;;;4968618;28;20054;-78
2023/12/11 03:05:26;;;;;;;25.88;22.55;;;4.60;99.90;;;;;;4967077;28;20067;-77
2023/12/11 03:07:52;;;;;;;24.15;21.60;;;4.60;99.90;;;;;;4970189;28;20030;-78
2023/12/11 03:10:18;;;;;;;26.73;20.95;;;4.60;99.90;;;;;;4949395;28;20028;-77
2023/12/11 03:12:43;;;;;;;24.20;21.77;;;4.60;99.90;;;;;;4966274;28;20026;-77
2023/12/11 03:15:10;;;;;;;21.60;19.48;;;4.70;99.90;;;;;;4963063;28;20106;-77
2023/12/11 03:17:36;;;;;;;20.60;18.52;;;4.70;99.90;;;;;;4974407;28;20027;-76
2023/12/11 03:20:01;;;;;;;21.63;18.05;;;4.70;99.90;;;;;;4963484;28;20031;-77
2023/12/11 03:22:28;;;;;;;20.83;18.40;;;4.70;99.90;;;;;;4952281;28;20374;-76
2023/12/11 03:24:54;;;;;;;21.05;18.85;;;4.70;99.90;;;;;;4962974;28;20031;-77
2023/12/11 03:27:20;;;;;;;22.20;19.85;;;4.80;99.90;;;;;;4951107;28;20453;-77
2023/12/11 03:29:47;;;;;;;20.73;18.65;;;4.90;99.90;;;;;;4947987;28;20024;-76
2023/12/11 03:32:12;;;;;;;21.70;18.67;;;4.90;99.90;;;;;;4967853;28;20405;-76
2023/12/11 03:34:38;;;;;;;20.80;18.60;;;4.90;99.90;;;;;;4951554;29;20035;-77
2023/12/11 03:37:04;;;;;;;20.70;18.40;;;4.90;99.90;;;;;;4953177;28;20078;-77
2023/12/11 03:39:29;;;;;;;20.17;16.92;;;5.00;99.90;;;;;;4950703;29;20035;-77
2023/12/11 03:41:56;;;;;;;17.98;16.17;;;4.90;99.90;;;;;;4944981;29;20106;-77
2023/12/11 03:44:21;;;;;;;22.40;18.77;;;4.90;99.90;;;;;;4946337;29;20028;-77
2023/12/11 03:46:47;;;;;;;20.10;18.10;;;5.00;99.90;;;;;;4949104;29;20385;-77
2023/12/11 03:49:16;;;;;;;21.05;18.85;;;5.00;99.90;;;;;;4948659;28;20023;-77
2023/12/11 03:51:45;;;;;;;21.80;19.55;;;4.90;99.90;;;;;;4948050;28;20582;-78
2023/12/11 03:54:11;;;;;;;20.58;18.65;;;4.90;99.90;;;;;;4946070;29;20031;-77
2023/12/11 03:56:39;;;;;;;21.17;18.92;;;5.00;99.90;;;;;;4948536;28;20086;-77
2023/12/11 03:59:05;;;;;;;21.83;19.75;;;5.00;99.90;;;;;;4944259;29;20139;-78
2023/12/11 04:01:31;;;;;;;22.73;20.42;;;4.90;99.90;;;;;;4947216;29;20131;-78
2023/12/11 04:03:56;;;;;;;25.98;23.38;;;4.90;99.90;;;;;;4946744;29;20063;-77
2023/12/11 04:06:22;;;;;;;25.45;22.80;;;4.90;99.90;;;;;;4944920;29;20121;-78
2023/12/11 04:08:48;;;;;;;28.58;24.15;;;4.90;99.90;;;;;;4946360;28;20030;-78
2023/12/11 04:11:14;;;;;;;28.20;25.30;;;4.80;99.90;;;;;;4947670;28;20042;-77
2023/12/11 04:13:39;;;;;;;26.70;24.00;;;4.70;99.90;;;;;;4946791;28;20490;-77
2023/12/11 04:16:05;;;;;;;27.73;24.75;;;4.70;99.90;;;;;;4944146;28;20390;-77
2023/12/11 04:18:32;;;;;;;28.83;25.90;;;4.60;99.90;;;;;;4950164;29;20525;-77
2023/12/11 04:20:58;;;;;;;29.08;26.00;;;4.60;99.90;;;;;;4945979;28;20028;-77
2023/12/11 04:23:24;;;;;;;27.60;24.70;;;4.60;99.90;;;;;;4946213;28;20412;-77
2023/12/11 04:25:53;;;;;;;26.08;23.25;;;4.50;99.90;;;;;;4943037;28;20028;-77
2023/12/11 04:28:18;;;;;;;30.70;26.67;;;4.50;99.90;;;;;;4946941;28;20052;-77
2023/12/11 04:30:45;;;;;;;33.40;29.90;;;4.50;99.90;;;;;;4945173;29;20047;-77
2023/12/11 04:33:11;;;;;;;31.35;28.17;;;4.50;99.90;;;;;;4964174;28;20051;-76
2023/12/11 04:35:37;;;;;;;28.42;25.45;;;4.40;99.90;;;;;;4963548;28;20085;-77
2023/12/11 04:38:03;;;;;;;29.50;26.45;;;4.30;99.90;;;;;;4963806;28;20097;-77
2023/12/11 04:40:29;;;;;;;27.38;24.67;;;4.30;99.90;;;;;;4968624;28;20026;-77
2023/12/11 04:42:55;;;;;;;27.30;24.40;;;4.40;99.90;;;;;;4966201;28;20031;-77
2023/12/11 04:45:20;;;;;;;25.35;22.83;;;4.30;99.90;;;;;;4965172;28;20038;-77
2023/12/11 04:47:46;;;;;;;26.85;24.13;;;4.30;99.90;;;;;;4968269;28;20093;-77
2023/12/11 04:50:12;;;;;;;23.65;21.20;;;4.30;99.90;;;;;;4964990;28;20031;-76
2023/12/11 04:52:38;;;;;;;20.85;18.73;;;4.30;99.90;;;;;;4964866;28;20050;-77
2023/12/11 04:55:04;;;;;;;27.67;23.02;;;4.30;99.90;;;;;;4964833;28;20028;-78
2023/12/11 04:57:29;;;;;;;24.33;21.73;;;4.20;99.90;;;;;;4965139;28;20422;-77
2023/12/11 04:59:55;;;;;;;23.00;20.73;;;4.10;99.90;;;;;;4961705;28;20062;-77
2023/12/11 05:02:21;;;;;;;23.52;20.85;;;4.10;99.90;;;;;;4965602;28;20035;-76
2023/12/11 05:04:47;;;;;;;24.20;21.90;;;4.10;99.90;;;;;;4961359;28;20027;-77
2023/12/11 05:07:12;;;;;;;25.92;23.17;;;4.10;99.90;;;;;;4964828;28;20257;-76
2023/12/11 05:09:38;;;;;;;32.08;23.92;;;4.20;99.90;;;;;;4963723;28;20450;-77
2023/12/11 05:12:04;;;;;;;23.88;21.67;;;4.20;99.90;;;;;;4947079;28;20023;-77
2023/12/11 05:14:30;;;;;;;24.25;21.77;;;4.20;99.90;;;;;;4946501;28;20319;-77
2023/12/11 05:16:55;;;;;;;25.40;22.80;;;4.20;99.90;;;;;;4966290;28;20027;-77
2023/12/11 05:19:21;;;;;;;26.58;20.00;;;4.20;99.90;;;;;;4964750;28;20516;-77
2023/12/11 05:21:46;;;;;;;23.90;21.63;;;4.20;99.90;;;;;;4965345;28;20480;-77
2023/12/11 05:24:12;;;;;;;22.17;19.88;;;4.20;99.90;;;;;;4961854;28;20035;-77
2023/12/11 05:26:38;;;;;;;21.05;18.88;;;4.10;99.90;;;;;;4948599;28;20058;-77
2023/12/11 05:29:04;;;;;;;23.15;20.77;;;4.00;99.90;;;;;;4949758;28;20047;-77
2023/12/11 05:31:33;;;;;;;25.58;22.15;;;4.00;99.90;;;;;;4970953;28;20026;-78
2023/12/11 05:33:59;;;;;;;24.25;21.55;;;4.10;99.90;;;;;;4968212;28;20055;-77
2023/12/11 05:36:24;;;;;;;23.70;21.33;;;4.10;99.90;;;;;;4968742;28;20042;-77
2023/12/11 05:38:50;;;;;;;21.48;19.25;;;4.10;99.90;;;;;;4972161;28;20496;-77
2023/12/11 05:41:17;;;;;;;20.08;17.98;;;4.20;99.90;;;;;;4968306;28;20042;-77
2023/12/11 05:43:43;;;;;;;20.40;17.40;;;4.20;99.90;;;;;;4968276;28;20037;-77
2023/12/11 05:46:09;;;;;;;20.85;18.65;;;4.20;99.90;;;;;;4967991;28;20027;-77
2023/12/11 05:48:34;;;;;;;21.92;19.73;;;4.20;99.90;;;;;;4966278;28;20029;-77
2023/12/11 05:51:00;;;;;;;23.00;20.70;;;4.20;99.90;;;;;;4949141;28;20497;-77
2023/12/11 05:53:26;;;;;;;20.48;18.42;;;4.20;99.90;;;;;;4967368;28;20034;-77
2023/12/11 05:55:51;;;;;;;21.08;18.95;;;4.30;99.90;;;;;;4964602;28;20427;-77
2023/12/11 05:58:17;;;;;;;20.70;18.50;;;4.40;99.90;;;;;;4968435;28;20038;-77
2023/12/11 06:00:44;;;;;;;21.73;19.30;;;4.30;99.90;;;;;;4968471;28;20031;-77
2023/12/11 06:03:10;;;;;;;18.45;16.67;;;4.40;99.90;;;;;;4972841;28;20370;-77
2023/12/11 06:05:36;;;;;;;19.00;17.27;;;4.40;99.90;;;;;;4967709;28;20041;-76
2023/12/11 06:08:02;;;;;;;18.15;16.40;;;4.40;99.90;;;;;;4970302;28;20438;-78
2023/12/11 06:10:28;;;;;;;17.90;16.15;;;4.40;99.90;;;;;;4967296;28;20034;-77
2023/12/11 06:12:55;;;;;;;19.88;17.80;;;4.40;99.90;;;;;;4965205;28;20031;-77
2023/12/11 06:15:20;;;;;;;19.15;17.13;;;4.40;99.90;;;;;;4951679;28;20041;-77
2023/12/11 06:17:46;;;;;;;23.95;21.55;;;4.40;99.90;;;;;;4953210;28;20038;-76
2023/12/11 06:20:12;;;;;;;26.42;19.73;;;4.30;99.90;;;;;;4967732;28;20118;-77
2023/12/11 06:22:37;;;;;;;18.48;16.58;;;4.30;99.90;;;;;;4971596;28;20045;-76
2023/12/11 06:25:03;;;;;;;22.85;17.95;;;4.30;99.90;;;;;;4967339;28;20054;-77
2023/12/11 06:27:29;;;;;;;20.63;18.58;;;4.30;99.90;;;;;;4966263;28;20384;-78
2023/12/11 06:29:55;;;;;;;23.30;21.05;;;4.40;99.90;;;;;;4964835;28;20024;-77
2023/12/11 06:32:21;;;;;;;26.13;21.65;;;4.40;99.90;;;;;;4971005;28;20112;-77
2023/12/11 06:34:47;;;;;;;29.80;24.88;;;4.30;99.90;;;;;;4964012;28;20037;-78
2023/12/11 06:37:13;;;;;;;25.13;22.60;;;4.10;99.90;;;;;;4967652;28;20027;-77
2023/12/11 06:39:39;;;;;;;24.73;22.15;;;4.00;99.90;;;;;;4967840;28;20027;-76
2023/12/11 06:42:05;;;;;;;20.77;18.58;;;4.00;99.90;;;;;;4969547;28;20030;-76
2023/12/11 06:44:30;;;;;;;22.08;18.58;;;4.00;99.90;;;;;;4966985;28;20545;-76
2023/12/11 06:46:57;;;;;;;21.02;18.80;;;4.10;99.90;;;;;;4966983;28;20139;-76
2023/12/11 06:49:22;;;;;;;18.35;16.52;;;4.10;99.90;;;;;;4954635;28;20041;-76
2023/12/11 06:51:49;;;;;;;22.75;19.85;;;4.20;99.90;;;;;;4970186;28;20113;-77
2023/12/11 06:54:15;;;;;;;24.92;22.27;;;4.20;99.90;;;;;;4966658;28;20042;-76
2023/12/11 06:56:40;;;;;;;26.70;23.98;;;4.20;99.90;;;;;;4967201;28;20023;-77
2023/12/11 06:59:07;;;;;;;27.35;24.55;;;4.00;99.90;;;;;;4967451;28;20027;-76
2023/12/11 07:01:34;;;;;;;30.27;27.10;;;4.00;99.90;;;;;;4951763;28;20027;-77
2023/12/11 07:04:01;;;;;;;30.92;27.85;;;4.00;99.90;;;;;;4970652;28;20057;-77
2023/12/11 07:06:27;;;;;;;32.85;27.60;;;3.90;99.90;;;;;;4967317;28;20022;-77
2023/12/11 07:08:53;;;;;;;32.13;28.70;;;3.90;99.90;;;;;;4973992;28;20042;-77
2023/12/11 07:11:19;;;;;;;36.53;32.05;;;3.80;99.90;;;;;;4966308;28;20429;-77
2023/12/11 07:13:45;;;;;;;31.80;28.35;;;3.80;99.90;;;;;;4965667;28;20059;-78
2023/12/11 07:16:11;;;;;;;34.03;30.42;;;3.80;99.90;;;;;;4966233;28;20034;-77
2023/12/11 07:18:38;;;;;;;33.65;28.92;;;3.70;99.90;;;;;;4972945;28;20046;-77
2023/12/11 07:21:10;;;;;;;46.47;39.60;;;3.60;99.90;;;;;;4966181;28;20110;-77
2023/12/11 07:23:36;;;;;;;41.03;36.50;;;3.50;99.90;;;;;;4972434;28;20035;-78
2023/12/11 07:26:07;;;;;;;49.92;42.25;;;3.50;99.90;;;;;;4964275;28;20066;-77
2023/12/11 07:28:33;;;;;;;47.30;39.53;;;3.50;99.90;;;;;;4974092;28;20496;-77
2023/12/11 07:30:58;;;;;;;33.78;27.40;;;3.60;99.90;;;;;;4948746;28;20027;-78
2023/12/11 07:33:25;;;;;;;30.40;26.63;;;3.70;99.90;;;;;;4966590;28;20051;-77
2023/12/11 07:35:50;;;;;;;32.58;29.13;;;3.90;99.90;;;;;;4948601;28;20389;-77
2023/12/11 07:38:17;;;;;;;30.52;27.23;;;4.00;99.90;;;;;;4966716;28;20065;-77
2023/12/11 07:40:44;;;;;;;30.10;26.45;;;4.10;99.90;;;;;;4966491;28;20031;-77
2023/12/11 07:43:11;;;;;;;31.45;28.20;;;4.10;99.90;;;;;;4969712;28;20089;-78
2023/12/11 07:45:37;;;;;;;29.38;26.40;;;4.20;99.90;;;;;;4965798;28;20099;-77
2023/12/11 07:48:03;;;;;;;35.70;30.00;;;4.20;99.90;;;;;;4952510;28;20694;-77
2023/12/11 07:50:29;;;;;;;37.35;32.05;;;4.30;99.90;;;;;;4962606;28;20035;-77
2023/12/11 07:52:55;;;;;;;37.85;33.85;;;4.30;99.90;;;;;;4966396;28;20033;-77
2023/12/11 07:55:21;;;;;;;37.40;33.35;;;4.40;99.90;;;;;;4962954;28;20027;-77
2023/12/11 07:57:46;;;;;;;36.53;32.22;;;4.40;99.90;;;;;;4969710;28;20070;-77
2023/12/11 08:00:13;;;;;;;38.80;34.67;;;4.50;99.90;;;;;;4962445;28;20027;-77
2023/12/11 08:02:38;;;;;;;39.83;33.60;;;4.50;99.90;;;;;;4969950;28;20390;-77
2023/12/11 08:05:04;;;;;;;35.88;32.30;;;4.50;99.90;;;;;;4947494;28;20042;-78
2023/12/11 08:07:30;;;;;;;36.55;32.70;;;4.60;99.90;;;;;;4965869;28;20470;-77
2023/12/11 08:09:56;;;;;;;37.22;33.30;;;4.60;99.90;;;;;;4962063;28;20030;-78
2023/12/11 08:12:22;;;;;;;43.15;37.38;;;4.60;99.90;;;;;;4951938;28;20449;-77
2023/12/11 08:14:47;;;;;;;44.60;39.75;;;4.70;99.90;;;;;;4961433;28;20398;-77
2023/12/11 08:17:13;;;;;;;48.53;36.78;;;4.70;99.90;;;;;;4950490;28;20019;-77
2023/12/11 08:19:39;;;;;;;40.53;35.85;;;4.70;99.90;;;;;;4962035;28;20035;-77
2023/12/11 08:22:05;;;;;;;46.60;39.42;;;4.80;99.90;;;;;;4965896;28;20023;-77
2023/12/11 08:24:30;;;;;;;45.97;38.17;;;4.80;99.90;;;;;;4964105;28;20031;-77
2023/12/11 08:26:56;;;;;;;41.75;35.25;;;4.80;99.90;;;;;;4950136;28;20071;-77
2023/12/11 08:29:23;;;;;;;46.58;32.80;;;4.80;99.90;;;;;;4963029;28;20027;-77
2023/12/11 08:31:49;;;;;;;40.45;32.88;;;4.80;99.90;;;;;;4968908;28;20044;-77
2023/12/11 08:34:15;;;;;;;43.05;31.98;;;4.80;99.90;;;;;;4947378;28;20133;-77
2023/12/11 08:36:41;;;;;;;35.55;29.10;;;4.90;99.90;;;;;;4965685;28;20110;-77
2023/12/11 08:39:09;;;;;;;31.00;25.52;;;4.90;99.90;;;;;;4964744;28;20027;-78
2023/12/11 08:41:36;;;;;;;34.42;28.17;;;5.00;99.90;;;;;;4969945;28;20031;-78
2023/12/11 08:44:02;;;;;;;37.42;27.38;;;5.00;99.90;;;;;;4963745;28;20030;-77
2023/12/11 08:46:27;;;;;;;36.38;28.95;;;5.00;99.90;;;;;;4963178;28;20053;-78
2023/12/11 08:48:53;;;;;;;33.83;27.88;;;5.10;99.90;;;;;;4962586;28;20102;-78
2023/12/11 08:51:19;;;;;;;32.40;28.65;;;5.10;99.90;;;;;;4948913;29;20031;-77
2023/12/11 08:53:45;;;;;;;35.92;32.17;;;5.10;99.90;;;;;;4963687;28;20035;-78
2023/12/11 08:56:13;;;;;;;37.10;31.95;;;5.20;99.90;;;;;;4961925;28;20082;-78
2023/12/11 08:58:39;;;;;;;41.20;34.38;;;5.20;99.90;;;;;;4962071;28;20117;-78
2023/12/11 09:01:05;;;;;;;44.10;35.13;;;5.20;99.90;;;;;;4964473;28;20751;-78
2023/12/11 09:03:31;;;;;;;44.08;37.15;;;5.20;99.90;;;;;;4951506;28;20031;-79
2023/12/11 09:05:57;;;;;;;49.20;38.35;;;5.30;99.90;;;;;;4950902;28;20955;-79
2023/12/11 09:08:23;;;;;;;39.05;32.50;;;5.30;99.90;;;;;;4952430;28;20441;-78
2023/12/11 09:10:49;;;;;;;40.42;35.70;;;5.40;99.90;;;;;;4956300;28;20176;-77
2023/12/11 09:13:15;;;;;;;45.10;37.42;;;5.40;99.90;;;;;;4965964;28;20070;-77
2023/12/11 09:15:40;;;;;;;47.50;37.92;;;5.50;99.90;;;;;;4961279;28;20069;-78
2023/12/11 09:18:07;;;;;;;47.38;38.40;;;5.60;99.90;;;;;;4948796;28;20042;-77
2023/12/11 09:20:33;;;;;;;43.08;36.92;;;5.60;99.90;;;;;;4941177;28;20039;-78
2023/12/11 09:22:59;;;;;;;47.75;37.03;;;5.70;99.90;;;;;;4965916;28;20034;-77
2023/12/11 09:25:24;;;;;;;43.10;36.03;;;5.70;99.90;;;;;;4961769;28;20114;-78
2023/12/11 09:27:50;;;;;;;42.17;34.60;;;5.80;99.90;;;;;;4962582;28;20022;-77
2023/12/11 09:30:16;;;;;;;47.33;39.05;;;5.80;99.90;;;;;;4958952;28;20110;-78
2023/12/11 09:32:42;;;;;;;47.63;37.92;;;5.90;99.90;;;;;;4966096;28;20568;-77
2023/12/11 09:35:08;;;;;;;44.80;37.85;;;5.90;99.90;;;;;;4944575;29;20514;-79
2023/12/11 09:37:34;;;;;;;47.20;40.22;;;6.00;99.90;;;;;;4968184;28;20110;-78
2023/12/11 09:39:59;;;;;;;44.13;39.35;;;6.00;99.90;;;;;;4965187;28;20217;-78
2023/12/11 09:42:26;;;;;;;50.22;42.75;;;6.10;99.90;;;;;;4969625;28;20053;-78
2023/12/11 09:44:52;;;;;;;58.70;42.72;;;6.10;99.90;;;;;;4964417;28;20031;-78
2023/12/11 09:47:29;;;;;;;46.75;40.40;;;6.00;99.90;;;;;;4963077;28;20397;-78
2023/12/11 09:49:54;;;;;;;49.65;41.70;;;5.90;99.90;;;;;;4961248;28;20071;-78
2023/12/11 09:52:22;;;;;;;47.00;39.60;;;5.90;99.90;;;;;;4965308;28;20047;-79
2023/12/11 09:54:48;;;;;;;45.42;38.67;;;5.90;99.90;;;;;;4963175;28;20034;-78
2023/12/11 09:57:15;;;;;;;52.55;40.15;;;5.90;99.90;;;;;;4967556;28;20027;-79
2023/12/11 09:59:42;;;;;;;47.53;40.35;;;5.90;99.90;;;;;;4961185;28;20099;-78
2023/12/11 10:02:15;;;;;;;42.22;37.40;;;6.00;99.90;;;;;;4966035;28;20045;-78
2023/12/11 10:05:03;;;;;;;40.42;35.42;;;6.00;99.90;;;;;;4959892;28;20035;-78
2023/12/11 10:07:30;;;;;;;41.92;35.88;;;6.10;99.90;;;;;;4948080;28;20038;-78
2023/12/11 10:09:55;;;;;;;38.10;33.97;;;6.10;99.90;;;;;;4963931;28;20023;-78
2023/12/11 10:12:21;;;;;;;39.65;35.45;;;6.10;99.90;;;;;;4968537;28;20028;-79
2023/12/11 10:15:02;;;;;;;42.53;37.38;;;6.20;99.90;;;;;;4966525;28;20607;-78
2023/12/11 10:17:29;;;;;;;46.38;36.95;;;6.20;99.90;;;;;;4956045;28;20481;-78
2023/12/11 10:19:55;;;;;;;36.85;32.92;;;6.20;99.90;;;;;;4968329;28;20154;-78
2023/12/11 10:22:29;;;;;;;39.63;33.45;;;6.30;99.90;;;;;;4964620;28;20055;-78
2023/12/11 10:24:55;;;;;;;31.25;28.10;;;6.30;99.90;;;;;;4955781;28;20603;-78
2023/12/11 10:27:25;;;;;;;36.35;31.13;;;6.20;99.90;;;;;;4968621;28;20027;-78
2023/12/11 10:30:14;;;;;;;33.53;29.92;;;6.30;99.90;;;;;;4967657;28;20077;-78
2023/12/11 10:32:40;;;;;;;33.97;29.83;;;6.30;99.90;;;;;;4959047;28;20043;-78
2023/12/11 10:35:06;;;;;;;38.88;32.60;;;6.40;99.90;;;;;;4954048;28;20507;-79
2023/12/11 10:37:36;;;;;;;38.15;33.90;;;6.40;99.90;;;;;;4946740;29;20621;-78
2023/12/11 10:40:03;;;;;;;40.53;34.75;;;6.50;99.90;;;;;;4967829;28;20027;-78
2023/12/11 10:42:29;;;;;;;42.60;37.03;;;6.50;99.90;;;;;;4952183;28;20027;-78
2023/12/11 10:44:55;;;;;;;40.72;34.85;;;6.50;99.90;;;;;;4964735;28;20451;-78
2023/12/11 10:47:22;;;;;;;45.30;35.65;;;6.60;99.90;;;;;;4948971;29;20028;-78
2023/12/11 10:49:49;;;;;;;40.85;35.10;;;6.70;99.90;;;;;;4965455;28;20035;-78
2023/12/11 10:52:14;;;;;;;40.60;33.70;;;6.70;99.90;;;;;;4967628;28;20023;-78
2023/12/11 10:54:43;;;;;;;45.22;35.42;;;6.80;99.90;;;;;;4966193;28;20035;-78
2023/12/11 10:57:16;;;;;;;39.20;33.45;;;6.90;99.90;;;;;;4966046;28;20516;-78
2023/12/11 10:59:43;;;;;;;41.97;34.28;;;6.90;99.90;;;;;;4968570;28;20366;-78
2023/12/11 11:02:12;;;;;;;39.08;32.58;;;7.00;99.90;;;;;;4970129;28;20109;-78
2023/12/11 11:04:41;;;;;;;37.70;32.55;;;7.10;99.90;;;;;;4950914;28;20442;-78
2023/12/11 11:07:22;;;;;;;35.65;30.40;;;7.10;99.90;;;;;;4972746;28;20033;-78
2023/12/11 11:10:15;;;;;;;40.65;31.80;;;7.20;99.90;;;;;;4955665;28;20121;-78
2023/12/11 11:12:53;;;;;;;36.67;31.35;;;7.30;99.90;;;;;;4961714;28;20126;-78
2023/12/11 11:15:25;;;;;;;35.25;30.85;;;7.40;99.90;;;;;;4966291;28;20035;-78
2023/12/11 11:18:01;;;;;;;39.30;30.80;;;7.40;99.90;;;;;;4969039;28;20035;-78
2023/12/11 11:20:29;;;;;;;34.85;30.92;;;7.50;99.90;;;;;;4966054;28;20030;-78
2023/12/11 11:23:13;;;;;;;39.67;32.50;;;7.50;99.90;;;;;;4963606;28;20076;-78
2023/12/11 11:25:39;;;;;;;46.53;32.40;;;7.50;99.90;;;;;;4965795;28;20062;-78
2023/12/11 11:28:06;;;;;;;38.92;31.30;;;7.50;99.90;;;;;;4969339;28;20030;-78
2023/12/11 11:30:46;;;;;;;37.17;32.30;;;7.60;99.90;;;;;;4963184;28;20059;-78
2023/12/11 11:33:13;;;;;;;41.90;32.60;;;7.60;99.90;;;;;;4969677;28;20513;-78
2023/12/11 11:35:52;;;;;;;44.25;31.83;;;7.60;99.90;;;;;;4965706;28;20057;-78
2023/12/11 11:38:20;;;;;;;35.70;29.50;;;7.60;99.90;;;;;;4962854;28;20031;-78
2023/12/11 11:40:48;;;;;;;38.45;29.77;;;7.60;99.90;;;;;;4964548;28;20034;-78
2023/12/11 11:43:14;;;;;;;31.58;28.17;;;7.60;99.90;;;;;;4948085;28;20041;-78
2023/12/11 11:45:41;;;;;;;36.65;30.05;;;7.60;99.90;;;;;;4947624;28;20121;-78
2023/12/11 11:48:07;;;;;;;33.78;28.83;;;7.70;99.90;;;;;;4965166;28;20047;-78
2023/12/11 11:50:32;;;;;;;42.85;30.15;;;7.70;99.90;;;;;;4962234;28;20462;-78
2023/12/11 11:53:11;;;;;;;44.35;32.42;;;7.80;99.90;;;;;;4964516;28;20051;-78
2023/12/11 11:55:39;;;;;;;39.75;30.63;;;7.80;99.90;;;;;;4962479;28;20027;-78
2023/12/11 11:58:13;;;;;;;40.78;34.10;;;7.80;99.90;;;;;;4965050;28;20050;-78
2023/12/11 12:00:39;;;;;;;40.20;31.02;;;7.90;99.90;;;;;;4965727;28;20026;-78
2023/12/11 12:03:06;;;;;;;45.60;34.30;;;7.90;99.90;;;;;;4947187;28;20023;-78
2023/12/11 12:05:32;;;;;;;47.05;35.58;;;7.90;99.90;;;;;;4966316;28;20577;-79
2023/12/11 12:08:00;;;;;;;42.30;34.58;;;7.90;99.90;;;;;;4958938;28;20125;-78
2023/12/11 12:10:26;;;;;;;44.05;35.80;;;7.80;99.90;;;;;;4968362;28;20050;-78
2023/12/11 12:12:59;;;;;;;44.10;34.22;;;7.80;99.90;;;;;;4968404;28;20023;-78
2023/12/11 12:15:25;;;;;;;44.30;36.45;;;7.80;99.90;;;;;;4966468;28;20026;-78
2023/12/11 12:17:51;;;;;;;43.47;34.63;;;7.80;99.90;;;;;;4950879;28;20513;-78
2023/12/11 12:20:18;;;;;;;46.78;36.30;;;7.80;99.90;;;;;;4963735;28;20058;-78
2023/12/11 12:23:05;;;;;;;44.22;36.47;;;7.80;99.90;;;;;;4964008;28;20023;-78
2023/12/11 12:25:31;;;;;;;47.22;36.75;;;7.80;99.90;;;;;;4962122;28;20035;-78
2023/12/11 12:28:06;;;;;;;49.85;39.33;;;7.80;99.90;;;;;;4965772;28;20151;-78
2023/12/11 12:30:33;;;;;;;47.15;38.00;;;7.80;99.90;;;;;;4966411;28;20030;-78
2023/12/11 12:33:00;;;;;;;45.20;38.45;;;7.90;99.90;;;;;;4965463;28;20042;-78